createdAt,value
2022-12-08T00:00:55.056Z,145.30
2022-12-08T00:02:58.942Z,151.95
2022-12-08T00:05:20.083Z,151.88
2022-12-08T00:07:41.174Z,153.60
2022-12-08T00:09:44.545Z,151.90
2022-12-08T00:11:48.101Z,159.70
2022-12-08T00:13:52.828Z,154.65
2022-12-08T00:16:01.670Z,148.95
2022-12-08T00:18:04.987Z,159.75
2022-12-08T00:20:09.431Z,150.15
2022-12-08T00:22:14.678Z,150.48
2022-12-08T00:24:18.835Z,150.55
2022-12-08T00:26:22.209Z,164.40
2022-12-08T00:28:25.555Z,164.98
2022-12-08T00:30:30.299Z,151.63
2022-12-08T00:32:33.633Z,159.65
2022-12-08T00:34:37.081Z,151.75
2022-12-08T00:36:40.513Z,155.63
2022-12-08T00:38:44.722Z,160.65
2022-12-08T00:40:48.828Z,162.77
2022-12-08T00:42:52.197Z,165.50
2022-12-08T00:44:55.594Z,146.98
2022-12-08T00:47:00.369Z,148.50
2022-12-08T00:49:04.021Z,151.95
2022-12-08T00:51:07.759Z,156.32
2022-12-08T00:53:11.117Z,166.00
2022-12-08T00:55:14.500Z,163.40
2022-12-08T00:57:17.904Z,161.88
2022-12-08T00:59:21.225Z,157.32
2022-12-08T01:01:25.097Z,158.60
2022-12-08T01:03:29.847Z,167.18
2022-12-08T01:05:33.338Z,158.13
2022-12-08T01:07:36.780Z,162.65
2022-12-08T01:09:40.170Z,158.60
2022-12-08T01:11:44.379Z,155.88
2022-12-08T01:13:48.129Z,159.45
2022-12-08T01:15:51.473Z,163.82
2022-12-08T01:17:54.793Z,175.60
2022-12-08T01:19:59.598Z,160.75
2022-12-08T01:22:02.904Z,172.43
2022-12-08T01:24:07.193Z,171.02
2022-12-08T01:26:13.655Z,162.43
2022-12-08T01:28:16.951Z,169.00
2022-12-08T01:30:20.943Z,164.05
2022-12-08T01:32:24.388Z,176.95
2022-12-08T01:34:27.791Z,157.85
2022-12-08T01:36:36.945Z,172.70
2022-12-08T01:38:40.412Z,181.02
2022-12-08T01:40:43.839Z,166.48
2022-12-08T01:42:47.597Z,167.38
2022-12-08T01:44:56.513Z,162.23
2022-12-08T01:47:00.210Z,154.60
2022-12-08T01:49:08.119Z,175.30
2022-12-08T01:51:11.640Z,156.73
2022-12-08T01:53:20.800Z,155.82
2022-12-08T01:55:27.443Z,158.82
2022-12-08T01:57:34.833Z,165.25
2022-12-08T01:59:42.426Z,178.75
2022-12-08T02:01:46.174Z,174.25
2022-12-08T02:03:55.607Z,160.13
2022-12-08T02:05:59.567Z,147.43
2022-12-08T02:08:06.969Z,169.93
2022-12-08T02:10:14.941Z,155.55
2022-12-08T02:12:18.604Z,154.32
2022-12-08T02:14:22.155Z,156.10
2022-12-08T02:16:39.198Z,158.10
2022-12-08T02:19:29.082Z,161.82
2022-12-08T02:21:33.614Z,162.85
2022-12-08T02:23:48.397Z,155.38
2022-12-08T02:26:43.171Z,168.55
2022-12-08T02:29:08.987Z,155.82
2022-12-08T02:31:24.560Z,154.38
2022-12-08T02:33:57.297Z,167.40
2022-12-08T02:36:07.119Z,165.82
2022-12-08T02:38:18.212Z,158.45
2022-12-08T02:40:27.024Z,163.07
2022-12-08T02:42:36.151Z,166.30
2022-12-08T02:44:44.878Z,151.25
2022-12-08T02:46:59.677Z,171.07
2022-12-08T02:49:03.527Z,165.13
2022-12-08T02:51:08.321Z,156.60
2022-12-08T02:55:21.548Z,157.32
2022-12-08T02:57:40.148Z,169.38
2022-12-08T03:00:03.009Z,153.52
2022-12-08T03:02:23.258Z,161.02
2022-12-08T03:04:36.461Z,164.00
2022-12-08T03:06:48.591Z,156.68
2022-12-08T03:08:59.109Z,169.25
2022-12-08T03:11:05.989Z,150.77
2022-12-08T03:13:12.818Z,156.20
2022-12-08T03:15:20.420Z,159.88
2022-12-08T03:17:29.540Z,149.57
2022-12-08T03:19:37.184Z,156.20
2022-12-08T03:21:45.699Z,171.68
2022-12-08T03:23:52.912Z,160.98
2022-12-08T03:26:00.748Z,154.15
2022-12-08T03:28:04.640Z,171.15
2022-12-08T03:30:09.457Z,167.40
2022-12-08T03:32:18.531Z,159.38
2022-12-08T03:34:24.898Z,151.02
2022-12-08T03:36:28.945Z,148.75
2022-12-08T03:38:40.556Z,156.00
2022-12-08T03:40:44.596Z,144.63
2022-12-08T03:42:47.924Z,153.25
2022-12-08T03:44:51.252Z,152.20
2022-12-08T03:46:54.550Z,147.57
2022-12-08T03:49:00.185Z,118.32
2022-12-08T03:51:03.515Z,153.45
2022-12-08T03:53:06.785Z,166.82
2022-12-08T03:55:11.631Z,153.48
2022-12-08T03:57:15.368Z,144.25
2022-12-08T03:59:18.734Z,145.07
2022-12-08T04:01:23.064Z,151.27
2022-12-08T04:03:27.273Z,144.70
2022-12-08T04:05:30.678Z,148.43
2022-12-08T04:07:33.978Z,155.15
2022-12-08T04:09:37.264Z,150.25
2022-12-08T04:11:41.999Z,145.80
2022-12-08T04:13:45.646Z,152.27
2022-12-08T04:15:49.570Z,143.73
2022-12-08T04:17:52.958Z,153.32
2022-12-08T04:19:56.264Z,145.40
2022-12-08T04:21:59.668Z,150.50
2022-12-08T04:24:03.016Z,146.38
2022-12-08T04:26:06.772Z,153.70
2022-12-08T04:28:11.555Z,155.13
2022-12-08T04:30:14.967Z,147.63
2022-12-08T04:32:18.324Z,153.15
2022-12-08T04:34:21.721Z,157.98
2022-12-08T04:36:26.349Z,152.63
2022-12-08T04:38:29.833Z,157.82
2022-12-08T04:40:33.504Z,147.82
2022-12-08T04:42:36.787Z,152.75
2022-12-08T04:44:41.487Z,150.25
2022-12-08T04:46:44.838Z,151.52
2022-12-08T04:48:48.705Z,150.18
2022-12-08T04:50:52.494Z,143.68
2022-12-08T04:52:55.915Z,152.00
2022-12-08T04:54:59.251Z,148.88
2022-12-08T04:57:02.573Z,151.82
2022-12-08T04:59:05.871Z,164.32
2022-12-08T05:01:11.062Z,147.05
2022-12-08T05:03:15.185Z,168.77
2022-12-08T05:05:18.724Z,7.10
2022-12-08T05:07:22.032Z,76.35
2022-12-08T05:09:25.622Z,144.35
2022-12-08T05:11:28.967Z,150.68
2022-12-08T05:13:32.722Z,143.25
2022-12-08T05:15:36.025Z,151.82
2022-12-08T05:17:40.710Z,132.68
2022-12-08T05:19:44.147Z,143.13
2022-12-08T05:21:48.154Z,137.77
2022-12-08T05:23:51.516Z,131.20
2022-12-08T05:25:54.860Z,142.15
2022-12-08T05:28:17.545Z,140.30
2022-12-08T05:30:21.619Z,140.13
2022-12-08T05:32:25.070Z,134.40
2022-12-08T05:34:29.767Z,142.98
2022-12-08T05:36:33.104Z,135.35
2022-12-08T05:38:36.685Z,154.20
2022-12-08T05:40:40.720Z,149.80
2022-12-08T05:42:44.054Z,138.65
2022-12-08T05:44:47.397Z,124.97
2022-12-08T05:46:50.672Z,135.48
2022-12-08T05:48:54.058Z,134.25
2022-12-08T05:50:59.120Z,129.32
2022-12-08T05:53:02.399Z,134.52
2022-12-08T05:55:06.751Z,141.55
2022-12-08T05:57:10.187Z,145.38
2022-12-08T05:59:13.582Z,143.52
2022-12-08T06:01:21.805Z,136.43
2022-12-08T06:03:25.217Z,144.20
2022-12-08T06:05:28.643Z,146.02
2022-12-08T06:07:33.368Z,160.45
2022-12-08T06:09:36.664Z,149.05
2022-12-08T06:11:40.108Z,150.02
2022-12-08T06:13:43.488Z,130.80
2022-12-08T06:15:46.932Z,113.38
2022-12-08T06:17:50.308Z,126.80
2022-12-08T06:19:53.652Z,122.40
2022-12-08T06:21:57.045Z,162.18
2022-12-08T06:24:01.722Z,153.20
2022-12-08T06:26:06.873Z,147.75
2022-12-08T06:28:10.194Z,140.43
2022-12-08T06:30:14.211Z,138.65
2022-12-08T06:32:19.033Z,114.78
2022-12-08T06:34:25.095Z,111.20
2022-12-08T06:36:28.880Z,117.38
2022-12-08T06:38:32.435Z,112.30
2022-12-08T06:40:37.096Z,145.82
2022-12-08T06:42:47.061Z,130.52
2022-12-08T06:44:51.927Z,131.82
2022-12-08T06:46:55.250Z,132.25
2022-12-08T06:48:59.455Z,141.07
2022-12-08T06:51:08.123Z,140.65
2022-12-08T06:53:12.857Z,140.70
2022-12-08T06:55:35.329Z,138.13
2022-12-08T06:57:41.171Z,152.30
2022-12-08T06:59:44.508Z,138.05
2022-12-08T07:01:48.304Z,142.25
2022-12-08T07:03:51.778Z,133.38
2022-12-08T07:06:03.308Z,134.00
2022-12-08T07:08:09.206Z,142.80
2022-12-08T07:10:12.664Z,138.07
2022-12-08T07:12:16.095Z,129.60
2022-12-08T07:14:23.595Z,132.50
2022-12-08T07:16:27.307Z,117.35
2022-12-08T07:18:30.836Z,129.07
2022-12-08T07:20:34.249Z,123.13
2022-12-08T07:22:37.600Z,132.75
2022-12-08T07:24:41.136Z,126.68
2022-12-08T07:26:44.530Z,139.20
2022-12-08T07:28:47.971Z,139.93
2022-12-08T07:30:52.649Z,132.75
2022-12-08T07:32:56.038Z,136.13
2022-12-08T07:34:59.354Z,134.00
2022-12-08T07:37:03.320Z,133.85
2022-12-08T07:39:06.845Z,131.70
2022-12-08T07:41:13.392Z,137.27
2022-12-08T07:43:16.731Z,145.23
2022-12-08T07:45:20.162Z,140.15
2022-12-08T07:47:25.428Z,138.73
2022-12-08T07:49:28.773Z,143.85
2022-12-08T07:51:32.402Z,146.95
2022-12-08T07:53:36.220Z,143.93
2022-12-08T07:55:40.499Z,153.00
2022-12-08T07:57:43.785Z,144.82
2022-12-08T07:59:47.110Z,146.20
2022-12-08T08:02:13.192Z,143.65
2022-12-08T08:04:15.912Z,143.82
2022-12-08T08:06:19.306Z,134.00
2022-12-08T08:08:23.053Z,149.15
2022-12-08T08:10:26.701Z,146.40
2022-12-08T08:12:31.719Z,143.65
2022-12-08T08:14:35.754Z,142.48
2022-12-08T08:16:41.933Z,143.98
2022-12-08T08:18:48.047Z,127.47
2022-12-08T08:20:52.705Z,125.15
2022-12-08T08:22:56.135Z,126.18
2022-12-08T08:24:59.441Z,125.35
2022-12-08T08:27:02.955Z,126.60
2022-12-08T08:29:06.456Z,131.00
2022-12-08T08:31:10.105Z,116.55
2022-12-08T08:33:13.567Z,135.05
2022-12-08T08:35:17.257Z,128.40
2022-12-08T08:37:22.047Z,132.48
2022-12-08T08:39:25.388Z,138.77
2022-12-08T08:41:28.720Z,131.55
2022-12-08T08:43:37.781Z,145.90
2022-12-08T08:45:41.829Z,135.65
2022-12-08T08:47:45.832Z,132.77
2022-12-08T08:49:49.448Z,136.32
2022-12-08T08:51:52.751Z,133.82
2022-12-08T08:53:58.111Z,135.18
2022-12-08T08:56:02.868Z,134.00
2022-12-08T08:58:06.412Z,150.77
2022-12-08T09:00:11.306Z,144.48
2022-12-08T09:02:18.481Z,137.13
2022-12-08T09:04:22.520Z,139.68
2022-12-08T09:06:26.046Z,133.60
2022-12-08T09:08:29.635Z,145.57
2022-12-08T09:10:34.419Z,128.57
2022-12-08T09:12:37.711Z,139.60
2022-12-08T09:14:41.170Z,127.68
2022-12-08T09:16:44.566Z,138.63
2022-12-08T09:18:49.289Z,142.82
2022-12-08T09:20:52.765Z,138.02
2022-12-08T09:22:56.115Z,134.80
2022-12-08T09:24:59.448Z,118.72
2022-12-08T09:27:04.166Z,131.45
2022-12-08T09:29:07.463Z,147.07
2022-12-08T09:31:10.889Z,130.18
2022-12-08T09:33:14.172Z,130.32
2022-12-08T09:35:17.746Z,140.75
2022-12-08T09:37:21.084Z,137.45
2022-12-08T09:39:24.392Z,129.77
2022-12-08T09:41:37.979Z,128.85
2022-12-08T09:44:01.366Z,130.70
2022-12-08T09:46:08.057Z,131.32
2022-12-08T09:48:16.135Z,115.95
2022-12-08T09:50:26.486Z,122.13
2022-12-08T09:52:36.123Z,113.40
2022-12-08T09:54:39.560Z,120.35
2022-12-08T09:56:42.933Z,120.07
2022-12-08T09:58:52.746Z,130.00
2022-12-08T10:00:57.518Z,127.78
2022-12-08T10:03:01.035Z,136.57
2022-12-08T10:05:04.682Z,127.40
2022-12-08T10:07:22.502Z,121.22
2022-12-08T10:09:33.949Z,126.90
2022-12-08T10:11:45.170Z,136.30
2022-12-08T10:13:56.721Z,135.85
2022-12-08T10:16:21.131Z,134.20
2022-12-08T10:18:29.942Z,122.35
2022-12-08T10:20:38.447Z,134.50
2022-12-08T10:22:44.900Z,133.70
2022-12-08T10:24:56.968Z,122.72
2022-12-08T10:27:01.287Z,128.15
2022-12-08T10:29:04.862Z,135.23
2022-12-08T10:31:16.630Z,128.85
2022-12-08T10:33:22.713Z,128.35
2022-12-08T10:35:26.266Z,132.02
2022-12-08T10:37:29.806Z,129.05
2022-12-08T10:39:36.247Z,130.75
2022-12-08T10:41:41.243Z,117.57
2022-12-08T10:43:48.883Z,128.40
2022-12-08T10:45:52.593Z,138.40
2022-12-08T10:48:03.906Z,138.57
2022-12-08T10:50:22.512Z,119.30
2022-12-08T10:52:26.394Z,136.63
2022-12-08T10:54:34.272Z,149.75
2022-12-08T10:56:38.083Z,149.48
2022-12-08T10:58:43.192Z,141.77
2022-12-08T11:00:46.659Z,147.25
2022-12-08T11:02:57.425Z,145.05
2022-12-08T11:05:02.283Z,137.60
2022-12-08T11:07:07.198Z,140.15
2022-12-08T11:09:25.714Z,146.05
2022-12-08T11:11:39.648Z,138.73
2022-12-08T11:13:43.597Z,145.75
2022-12-08T11:15:47.517Z,140.50
2022-12-08T11:18:03.089Z,134.73
2022-12-08T11:20:24.546Z,126.82
2022-12-08T11:22:32.161Z,141.65
2022-12-08T11:24:37.873Z,145.73
2022-12-08T11:26:46.143Z,136.30
2022-12-08T11:28:49.475Z,151.05
2022-12-08T11:30:58.729Z,138.98
2022-12-08T11:33:09.370Z,126.93
2022-12-08T11:35:21.648Z,120.50
2022-12-08T11:37:34.608Z,122.50
2022-12-08T11:39:45.792Z,122.05
2022-12-08T11:41:52.842Z,136.95
2022-12-08T11:44:03.447Z,125.47
2022-12-08T11:46:14.637Z,135.50
2022-12-08T11:48:21.429Z,130.48
2022-12-08T11:50:30.883Z,131.68
2022-12-08T11:52:43.471Z,117.43
2022-12-08T11:54:51.899Z,125.68
2022-12-08T11:56:57.783Z,124.28
2022-12-08T11:59:06.894Z,123.20
2022-12-08T12:01:19.294Z,133.23
2022-12-08T12:03:30.475Z,135.13
2022-12-08T12:06:09.286Z,131.55
2022-12-08T12:08:26.638Z,132.63
2022-12-08T12:10:44.455Z,133.73
2022-12-08T12:13:04.547Z,136.32
2022-12-08T12:15:57.567Z,134.40
2022-12-08T12:18:04.739Z,144.73
2022-12-08T12:20:16.724Z,138.10
2022-12-08T12:22:24.234Z,128.50
2022-12-08T12:24:35.939Z,126.10
2022-12-08T12:26:54.758Z,127.20
2022-12-08T12:29:01.759Z,140.07
2022-12-08T12:31:09.242Z,129.32
2022-12-08T12:33:17.844Z,121.35
2022-12-08T12:35:27.916Z,131.20
2022-12-08T12:37:38.847Z,140.05
2022-12-08T12:39:51.686Z,131.63
2022-12-08T12:41:56.840Z,130.15
2022-12-08T12:44:26.433Z,142.85
2022-12-08T12:46:42.759Z,125.18
2022-12-08T12:48:46.172Z,131.05
2022-12-08T12:50:50.518Z,141.73
2022-12-08T12:52:55.305Z,137.38
2022-12-08T12:55:38.148Z,154.15
2022-12-08T12:57:52.008Z,138.10
2022-12-08T13:00:08.942Z,152.82
2022-12-08T13:02:24.801Z,143.00
2022-12-08T13:04:36.644Z,140.20
2022-12-08T13:06:44.180Z,135.90
2022-12-08T13:08:54.227Z,132.73
2022-12-08T13:11:01.789Z,135.13
2022-12-08T13:13:17.340Z,132.38
2022-12-08T13:15:21.782Z,147.70
2022-12-08T13:17:31.252Z,133.30
2022-12-08T13:19:39.710Z,148.10
2022-12-08T13:21:43.371Z,134.10
2022-12-08T13:23:49.305Z,124.35
2022-12-08T13:26:10.332Z,126.85
2022-12-08T13:28:20.195Z,129.45
2022-12-08T13:30:43.544Z,130.70
2022-12-08T13:35:21.920Z,124.55
2022-12-08T13:37:30.044Z,128.43
2022-12-08T13:39:41.307Z,134.02
2022-12-08T13:41:54.262Z,133.82
2022-12-08T13:55:01.380Z,132.70
2022-12-08T13:58:51.633Z,117.47
2022-12-08T14:00:58.739Z,131.93
2022-12-08T14:03:03.288Z,125.63
2022-12-08T14:05:35.151Z,126.05
2022-12-08T14:07:33.532Z,128.40
2022-12-08T14:09:38.463Z,142.40
2022-12-08T14:11:45.272Z,119.32
2022-12-08T14:13:52.471Z,120.45
2022-12-08T14:15:55.792Z,133.35
2022-12-08T14:17:59.217Z,136.63
2022-12-08T14:20:04.876Z,116.25
2022-12-08T14:22:13.631Z,108.00
2022-12-08T14:24:17.047Z,124.93
2022-12-08T14:26:20.398Z,134.20
2022-12-08T14:28:24.251Z,112.60
2022-12-08T14:30:32.128Z,121.25
2022-12-08T14:32:39.475Z,125.15
2022-12-08T14:34:43.469Z,115.43
2022-12-08T14:36:47.009Z,118.63
2022-12-08T14:38:58.027Z,114.50
2022-12-08T14:41:04.254Z,122.68
2022-12-08T14:43:17.119Z,103.90
2022-12-08T14:45:21.338Z,107.28
2022-12-08T14:47:30.727Z,99.93
2022-12-08T14:49:35.689Z,100.57
2022-12-08T14:51:41.143Z,95.63
2022-12-08T14:53:48.404Z,105.30
2022-12-08T14:55:51.814Z,97.60
2022-12-08T14:57:55.211Z,116.50
2022-12-08T14:59:58.605Z,105.70
2022-12-08T15:02:24.248Z,122.72
2022-12-08T15:04:29.706Z,109.85
2022-12-08T15:06:33.089Z,108.75
2022-12-08T15:08:52.549Z,98.65
2022-12-08T15:11:14.141Z,100.38
2022-12-08T15:13:26.466Z,139.88
2022-12-08T15:15:31.843Z,124.65
2022-12-08T15:17:41.756Z,105.18
2022-12-08T15:19:56.945Z,119.95
2022-12-08T15:22:10.087Z,117.22
2022-12-08T15:24:15.179Z,129.18
2022-12-08T15:26:22.203Z,124.72
2022-12-08T15:28:29.974Z,121.25
2022-12-08T15:30:34.373Z,115.55
2022-12-08T15:32:37.689Z,102.38
2022-12-08T15:34:41.027Z,88.80
2022-12-08T15:36:46.121Z,112.63
2022-12-08T15:38:49.662Z,111.93
2022-12-08T15:40:53.685Z,63.47
2022-12-08T15:42:57.022Z,67.43
2022-12-08T15:45:00.314Z,67.32
2022-12-08T15:47:04.207Z,33.50
2022-12-08T15:49:07.752Z,21.60
2022-12-08T15:51:11.104Z,36.90
2022-12-08T15:53:16.101Z,21.97
2022-12-08T15:55:21.177Z,25.60
2022-12-08T15:58:04.019Z,11.85
2022-12-08T15:59:50.512Z,59.47
2022-12-08T16:01:53.970Z,25.73
2022-12-08T16:08:56.080Z,14.90
2022-12-08T16:12:03.789Z,11.88
2022-12-08T16:13:58.225Z,10.07
2022-12-08T16:16:06.464Z,12.10
2022-12-08T16:18:17.075Z,10.25
2022-12-08T16:20:28.154Z,12.47
2022-12-08T16:22:54.586Z,16.20
2022-12-08T16:25:17.693Z,9.65
2022-12-08T16:29:48.940Z,12.40
2022-12-08T16:31:52.834Z,11.85
2022-12-08T16:33:56.147Z,10.98
2022-12-08T16:35:59.459Z,15.52
2022-12-08T16:38:02.853Z,12.95
2022-12-08T16:40:10.220Z,9.40
2022-12-08T16:42:32.328Z,8.63
2022-12-08T16:44:41.036Z,18.40
2022-12-08T16:46:44.347Z,12.88
2022-12-08T16:48:47.758Z,15.00
2022-12-08T16:50:51.430Z,12.55
2022-12-08T16:52:58.256Z,12.50
2022-12-08T16:55:01.866Z,9.68
2022-12-08T16:57:06.689Z,18.60
2022-12-08T16:59:09.971Z,12.43
2022-12-08T17:01:14.751Z,15.57
2022-12-08T17:03:18.696Z,12.63
2022-12-08T17:05:23.651Z,11.65
2022-12-08T17:07:27.131Z,17.67
2022-12-08T17:09:32.420Z,16.45
2022-12-08T17:11:42.292Z,12.55
2022-12-08T17:13:47.858Z,10.37
2022-12-08T17:15:51.301Z,12.15
2022-12-08T17:17:55.252Z,12.23
2022-12-08T17:19:58.537Z,10.02
2022-12-08T17:22:03.133Z,11.73
2022-12-08T17:24:06.760Z,11.10
2022-12-08T17:26:10.812Z,12.70
2022-12-08T17:28:22.468Z,13.18
2022-12-08T17:30:39.710Z,12.18
2022-12-08T17:32:43.755Z,9.18
2022-12-08T17:34:47.396Z,10.05
2022-12-08T17:36:50.941Z,10.95
2022-12-08T17:38:54.564Z,10.38
2022-12-08T17:41:03.079Z,11.00
2022-12-08T17:43:06.428Z,10.25
2022-12-08T17:45:10.568Z,10.03
2022-12-08T17:47:15.221Z,10.48
2022-12-08T17:49:21.633Z,9.40
2022-12-08T17:51:24.933Z,9.73
2022-12-08T17:53:30.646Z,9.30
2022-12-08T17:55:36.780Z,9.60
2022-12-08T17:57:40.156Z,12.00
2022-12-08T17:59:43.459Z,15.93
2022-12-08T18:01:47.107Z,13.05
2022-12-08T18:03:52.146Z,13.95
2022-12-08T18:05:55.558Z,16.15
2022-12-08T18:08:00.248Z,22.70
2022-12-08T18:10:04.306Z,21.35
2022-12-08T18:12:08.469Z,21.75
2022-12-08T18:14:12.298Z,23.80
2022-12-08T18:16:16.058Z,22.20
2022-12-08T18:18:19.845Z,29.65
2022-12-08T18:20:24.762Z,29.45
2022-12-08T18:22:28.287Z,27.75
2022-12-08T18:24:31.972Z,26.48
2022-12-08T18:26:35.777Z,28.27
2022-12-08T18:28:39.613Z,24.02
2022-12-08T18:30:43.015Z,28.58
2022-12-08T18:32:46.785Z,32.75
2022-12-08T18:34:50.387Z,30.70
2022-12-08T18:36:55.096Z,17.55
2022-12-08T18:38:59.043Z,13.95
2022-12-08T18:41:05.972Z,25.27
2022-12-08T18:43:09.346Z,23.83
2022-12-08T18:45:15.703Z,12.70
2022-12-08T18:47:21.333Z,45.63
2022-12-08T18:49:26.398Z,60.20
2022-12-08T18:51:29.812Z,89.55
2022-12-08T18:53:34.592Z,50.20
2022-12-08T18:55:38.394Z,12.15
2022-12-08T18:57:43.777Z,9.85
2022-12-08T18:59:47.247Z,16.23
2022-12-08T19:01:50.637Z,43.08
2022-12-08T19:04:20.088Z,34.83
2022-12-08T19:06:17.817Z,44.47
2022-12-08T19:08:22.601Z,53.85
2022-12-08T19:10:32.175Z,49.55
2022-12-08T19:12:35.602Z,19.48
2022-12-08T19:14:39.034Z,27.15
2022-12-08T19:16:42.493Z,32.72
2022-12-08T19:18:45.968Z,36.60
2022-12-08T19:20:49.367Z,44.10
2022-12-08T19:22:52.703Z,46.25
2022-12-08T19:24:56.099Z,45.70
2022-12-08T19:27:00.776Z,56.22
2022-12-08T19:29:04.597Z,67.30
2022-12-08T19:31:09.115Z,52.95
2022-12-08T19:33:12.652Z,65.28
2022-12-08T19:35:15.957Z,39.25
2022-12-08T19:37:19.353Z,59.58
2022-12-08T19:39:42.324Z,51.88
2022-12-08T19:42:03.705Z,56.63
2022-12-08T19:44:35.707Z,63.03
2022-12-08T19:46:40.625Z,49.80
2022-12-08T19:48:44.365Z,56.92
2022-12-08T19:50:47.778Z,53.28
2022-12-08T19:52:51.151Z,54.58
2022-12-08T19:54:54.727Z,59.78
2022-12-08T19:56:58.259Z,91.32
2022-12-08T19:59:01.620Z,74.95
2022-12-08T20:01:06.557Z,44.00
2022-12-08T20:03:11.691Z,43.78
2022-12-08T20:05:15.993Z,58.45
2022-12-08T20:07:19.834Z,24.58
2022-12-08T20:09:23.643Z,39.35
2022-12-08T20:11:27.040Z,53.45
2022-12-08T20:13:44.609Z,42.60
2022-12-08T20:15:47.965Z,49.53
2022-12-08T20:17:52.660Z,43.70
2022-12-08T20:19:56.063Z,56.50
2022-12-08T20:21:59.353Z,54.28
2022-12-08T20:24:04.563Z,52.72
2022-12-08T20:26:10.710Z,74.90
2022-12-08T20:28:14.262Z,75.00
2022-12-08T20:30:17.827Z,16.73
2022-12-08T20:32:21.187Z,38.67
2022-12-08T20:34:25.907Z,48.80
2022-12-08T20:36:29.551Z,57.70
2022-12-08T20:38:33.044Z,80.82
2022-12-08T20:40:36.395Z,80.20
2022-12-08T20:42:39.740Z,66.85
2022-12-08T20:44:44.456Z,50.13
2022-12-08T20:46:49.738Z,81.38
2022-12-08T20:48:53.397Z,115.32
2022-12-08T20:50:58.104Z,116.72
2022-12-08T20:53:01.553Z,112.50
2022-12-08T20:55:05.590Z,72.22
2022-12-08T20:57:08.954Z,57.72
2022-12-08T20:59:16.508Z,51.90
2022-12-08T21:01:22.522Z,80.32
2022-12-08T21:03:26.541Z,69.40
2022-12-08T21:05:30.241Z,83.82
2022-12-08T21:07:35.140Z,92.43
2022-12-08T21:09:38.757Z,87.50
2022-12-08T21:11:42.458Z,90.20
2022-12-08T21:13:46.859Z,50.28
2022-12-08T21:15:50.484Z,53.50
2022-12-08T21:17:54.804Z,58.67
2022-12-08T21:19:58.277Z,78.18
2022-12-08T21:22:01.824Z,82.03
2022-12-08T21:24:07.825Z,73.18
2022-12-08T21:26:13.482Z,63.83
2022-12-08T21:28:16.939Z,51.92
2022-12-08T21:30:20.567Z,75.47
2022-12-08T21:32:29.916Z,61.40
2022-12-08T21:34:34.248Z,69.05
2022-12-08T21:36:38.160Z,74.57
2022-12-08T21:38:41.881Z,70.85
2022-12-08T21:40:46.608Z,77.47
2022-12-08T21:42:50.469Z,93.90
2022-12-08T21:44:53.979Z,80.22
2022-12-08T21:46:57.542Z,71.18
2022-12-08T21:49:01.227Z,79.95
2022-12-08T21:51:05.814Z,90.25
2022-12-08T21:53:09.495Z,92.43
2022-12-08T21:55:14.356Z,102.57
2022-12-08T21:57:19.390Z,103.57
2022-12-08T21:59:23.019Z,90.55
2022-12-08T22:01:26.773Z,46.38
2022-12-08T22:03:30.771Z,69.28
2022-12-08T22:05:36.897Z,66.72
2022-12-08T22:07:41.764Z,83.95
2022-12-08T22:09:45.481Z,72.78
2022-12-08T22:11:49.272Z,96.22
2022-12-08T22:13:54.484Z,88.93
2022-12-08T22:15:58.863Z,88.20
2022-12-08T22:18:02.656Z,81.15
2022-12-08T22:20:08.600Z,62.10
2022-12-08T22:22:12.492Z,85.30
2022-12-08T22:24:16.056Z,68.55
2022-12-08T22:26:19.682Z,64.75
2022-12-08T22:28:23.459Z,94.55
2022-12-08T22:30:29.165Z,83.10
2022-12-08T22:32:34.611Z,84.05
2022-12-08T22:34:38.366Z,69.03
2022-12-08T22:36:42.275Z,70.65
2022-12-08T22:38:46.381Z,77.20
2022-12-08T22:40:49.920Z,64.80
2022-12-08T22:42:53.399Z,80.32
2022-12-08T22:44:56.899Z,86.35
2022-12-08T22:47:01.911Z,112.00
2022-12-08T22:49:05.603Z,107.30
2022-12-08T22:51:09.695Z,86.97
2022-12-08T22:53:13.955Z,94.95
2022-12-08T22:55:17.762Z,91.05
2022-12-08T22:57:21.484Z,87.65
2022-12-08T22:59:24.958Z,107.03
2022-12-08T23:01:31.906Z,111.75
2022-12-08T23:03:37.301Z,97.93
2022-12-08T23:05:41.238Z,98.10
2022-12-08T23:07:44.673Z,69.72
2022-12-08T23:09:48.210Z,77.88
2022-12-08T23:11:52.255Z,102.05
2022-12-08T23:13:56.331Z,83.13
2022-12-08T23:15:59.744Z,110.70
2022-12-08T23:18:03.147Z,109.10
2022-12-08T23:20:09.715Z,71.40
2022-12-08T23:22:13.350Z,96.20
2022-12-08T23:24:16.834Z,104.88
2022-12-08T23:26:22.440Z,77.70
2022-12-08T23:28:26.185Z,85.90
2022-12-08T23:30:29.512Z,97.80
2022-12-08T23:32:32.915Z,73.63
2022-12-08T23:34:36.368Z,71.20
2022-12-08T23:36:41.026Z,87.10
2022-12-08T23:38:44.551Z,91.32
2022-12-08T23:40:47.961Z,70.57
2022-12-08T23:42:51.474Z,89.63
2022-12-08T23:44:54.822Z,100.28
2022-12-08T23:46:58.224Z,76.07
2022-12-08T23:49:01.908Z,80.78
2022-12-08T23:51:05.498Z,85.05
2022-12-08T23:53:10.203Z,97.65
2022-12-08T23:55:13.601Z,94.35
2022-12-08T23:57:17.131Z,58.78
2022-12-08T23:59:20.512Z,73.22
